KXNA/XNA METAR and TAF weather

Enter ICAO airport designator
Station Type Date Time Source
KXNA METAR 2019/08/25 06:53 UTC NOAA

KXNA 250653Z AUTO 11006KT 10SM SCT009 OVC013 22/19 A3000 RMK AO2 SLP143 T02170194


Station Type Date Time Source
KXNA Decoded METAR 2019/08/25 06:53 UTC NOAA

Station name not available
Aug 25, 2019 - 02:53 AM EDT / 2019.08.25 0653 UTC
Wind: from the ESE (110 degrees) at 7 MPH (6 KT):0
Visibility: 10 mile(s):0
Sky conditions: overcast
Temperature: 71.1 F (21.7 C)
Dew Point: 66.9 F (19.4 C)
Relative Humidity: 86%
Pressure (altimeter): 30 in. Hg (1015 hPa)
ob: KXNA 250653Z AUTO 11006KT 10SM SCT009 OVC013 22/19 A3000 RMK AO2 SLP143 T02170194
cycle: 7

Station Type Date Time Source
KXNA TAF 2019/08/25 06:22 UTC NOAA

TAF KXNA 250520Z 2506/2606 09007KT P6SM BKN008 OVC021
FM250900 VRB03KT P6SM OVC007
FM251800 16005KT P6SM VCTS OVC015CB
TEMPO 2519/2523 4SM -TSRA OVC008CB
FM260000 14006KT P6SM BKN025

Example: see airport list